Time;durP1;ratioP1;P1;durP2;ratioP2;P2;SDS_P1;SDS_P2;PMS_P1;PMS_P2;Temp;Humidity;BMP_temperature;BMP_pressure;BME280_temperature;BME280_humidity;BME280_pressure;Samples;Min_cycle;Max_cycle;Signal;HPM_P1;HPM_P2
2022/09/09 00:01:38;;;;;;;6.15;1.30;;;22.30;70.70;;;;;;5094952;28;20027;-74
2022/09/09 00:04:14;;;;;;;4.35;1.30;;;22.30;70.70;;;;;;5094715;28;20024;-74
2022/09/09 00:06:52;;;;;;;7.75;1.60;;;22.30;70.70;;;;;;5093249;28;20017;-74
2022/09/09 00:09:19;;;;;;;6.22;1.73;;;22.30;70.70;;;;;;5094771;28;20024;-74
2022/09/09 00:12:06;;;;;;;4.72;1.63;;;22.30;70.70;;;;;;5093461;28;20023;-74
2022/09/09 00:14:50;;;;;;;6.43;1.70;;;22.30;70.70;;;;;;5094303;28;20036;-74
2022/09/09 00:17:39;;;;;;;3.47;1.73;;;22.30;70.70;;;;;;5111420;28;20034;-74
2022/09/09 00:20:23;;;;;;;4.10;1.45;;;22.30;70.70;;;;;;5113648;28;20505;-74
2022/09/09 00:23:15;;;;;;;6.03;1.73;;;22.30;70.70;;;;;;5114924;28;20184;-74
2022/09/09 00:25:49;;;;;;;3.55;1.40;;;22.30;70.60;;;;;;5097583;28;20020;-74
2022/09/09 00:28:20;;;;;;;10.77;1.70;;;22.30;70.60;;;;;;5113459;28;20102;-74
2022/09/09 00:30:48;;;;;;;6.75;1.48;;;22.30;70.70;;;;;;5113537;28;20035;-74
2022/09/09 00:33:15;;;;;;;5.43;1.70;;;22.30;70.70;;;;;;5113445;28;20471;-74
2022/09/09 00:35:59;;;;;;;5.82;1.58;;;22.30;70.70;;;;;;5114230;28;20020;-74
2022/09/09 00:38:41;;;;;;;4.03;1.20;;;22.30;70.60;;;;;;5078154;28;20043;-74
2022/09/09 00:41:22;;;;;;;4.13;1.52;;;22.30;70.70;;;;;;5072491;28;20027;-74
2022/09/09 00:43:54;;;;;;;3.92;1.50;;;22.30;70.60;;;;;;5072632;28;20110;-74
2022/09/09 00:46:26;;;;;;;3.10;1.30;;;22.30;70.70;;;;;;5073805;28;20035;-74
2022/09/09 00:48:58;;;;;;;2.53;1.38;;;22.30;70.60;;;;;;5073596;28;20123;-74
2022/09/09 00:51:41;;;;;;;5.13;1.45;;;22.30;70.60;;;;;;5072464;28;20097;-74
2022/09/09 00:54:20;;;;;;;6.00;1.50;;;22.30;70.70;;;;;;5072579;28;20075;-74
2022/09/09 00:57:07;;;;;;;3.45;1.45;;;22.30;70.60;;;;;;5072328;28;20029;-74
2022/09/09 00:59:57;;;;;;;3.78;1.30;;;22.30;70.70;;;;;;5058163;28;20040;-74
2022/09/09 01:02:56;;;;;;;5.65;1.42;;;22.30;70.60;;;;;;5072326;28;20063;-74
2022/09/09 01:06:07;;;;;;;3.60;1.48;;;22.30;70.70;;;;;;5068786;28;20119;-74
2022/09/09 01:08:56;;;;;;;4.13;1.55;;;22.30;70.60;;;;;;5069121;28;20040;-74
2022/09/09 01:11:27;;;;;;;4.57;1.60;;;22.30;70.70;;;;;;5092916;28;20032;-74
2022/09/09 01:14:02;;;;;;;5.80;1.60;;;22.30;70.70;;;;;;5075812;28;20472;-74
2022/09/09 01:16:28;;;;;;;2.97;1.15;;;22.30;70.60;;;;;;5086407;28;20073;-74
2022/09/09 01:18:53;;;;;;;4.70;1.30;;;22.30;70.70;;;;;;5095559;28;20023;-74
2022/09/09 01:21:25;;;;;;;3.58;1.60;;;22.30;70.60;;;;;;5112565;28;20023;-74
2022/09/09 01:24:27;;;;;;;3.40;1.27;;;22.30;70.70;;;;;;5112376;28;20626;-74
2022/09/09 01:26:54;;;;;;;7.53;1.38;;;22.20;70.50;;;;;;5112527;28;20024;-74
2022/09/09 01:29:21;;;;;;;5.30;1.95;;;22.20;70.60;;;;;;5095819;28;20020;-73
2022/09/09 01:31:53;;;;;;;3.65;1.48;;;22.20;70.60;;;;;;5095336;28;20016;-73
2022/09/09 01:34:19;;;;;;;6.20;1.50;;;22.20;70.60;;;;;;5113312;28;20030;-73
2022/09/09 01:36:50;;;;;;;4.25;1.33;;;22.20;70.70;;;;;;5112388;28;20525;-74
2022/09/09 01:39:16;;;;;;;5.57;1.50;;;22.20;70.60;;;;;;5112050;28;20020;-73
2022/09/09 01:41:42;;;;;;;3.92;1.38;;;22.20;70.60;;;;;;5112072;28;20087;-73
2022/09/09 01:44:07;;;;;;;5.38;1.58;;;22.20;70.70;;;;;;5113502;28;20070;-73
2022/09/09 01:46:33;;;;;;;3.85;1.60;;;22.20;70.60;;;;;;5112179;28;20031;-73
2022/09/09 01:48:59;;;;;;;4.07;1.30;;;22.20;70.60;;;;;;5111647;28;20054;-73
2022/09/09 01:51:25;;;;;;;3.40;1.70;;;22.20;70.60;;;;;;5112145;28;20020;-72
2022/09/09 01:53:51;;;;;;;3.72;1.50;;;22.20;70.60;;;;;;5113127;28;20110;-73
2022/09/09 01:56:58;;;;;;;5.85;1.50;;;22.20;70.70;;;;;;5113484;28;20117;-73
2022/09/09 01:59:30;;;;;;;6.20;1.50;;;22.20;70.50;;;;;;5102128;28;20495;-73
2022/09/09 02:02:17;;;;;;;4.13;1.38;;;22.20;70.60;;;;;;5113110;28;20020;-73
2022/09/09 02:04:50;;;;;;;4.72;1.20;;;22.20;70.50;;;;;;5111985;28;20028;-73
2022/09/09 02:07:22;;;;;;;5.30;1.75;;;22.20;70.60;;;;;;5095722;28;20371;-73
2022/09/09 02:09:51;;;;;;;3.83;1.73;;;22.20;70.50;;;;;;5075499;28;20039;-73
2022/09/09 02:12:18;;;;;;;4.78;1.60;;;22.20;71.60;;;;;;5055020;28;20111;-73
2022/09/09 02:14:50;;;;;;;5.13;1.63;;;22.20;70.60;;;;;;5071462;28;20025;-73
2022/09/09 02:17:19;;;;;;;5.03;1.55;;;22.20;70.60;;;;;;5106070;28;20023;-73
2022/09/09 02:19:48;;;;;;;4.18;1.40;;;22.20;70.70;;;;;;5111946;28;20031;-73
2022/09/09 02:22:15;;;;;;;5.15;1.63;;;22.20;70.60;;;;;;5095813;28;20020;-73
2022/09/09 02:24:41;;;;;;;4.72;1.70;;;22.20;70.60;;;;;;5098970;28;20019;-74
2022/09/09 02:27:08;;;;;;;4.13;1.25;;;22.20;70.70;;;;;;5116040;28;20027;-73
2022/09/09 02:29:36;;;;;;;8.05;1.75;;;22.20;70.70;;;;;;5115646;28;20020;-73
2022/09/09 02:32:03;;;;;;;4.65;1.42;;;22.20;70.70;;;;;;5098877;28;20111;-73
2022/09/09 02:34:30;;;;;;;4.35;1.77;;;22.20;70.70;;;;;;5098850;28;20069;-73
2022/09/09 02:36:55;;;;;;;5.72;1.65;;;22.20;70.70;;;;;;5096568;28;20023;-73
2022/09/09 02:39:21;;;;;;;8.45;1.75;;;22.20;70.70;;;;;;5078097;28;20392;-73
2022/09/09 02:41:47;;;;;;;5.78;1.60;;;22.20;70.80;;;;;;5094403;28;20101;-74
2022/09/09 02:44:17;;;;;;;7.07;1.45;;;22.10;70.90;;;;;;5094613;28;20043;-74
2022/09/09 02:46:55;;;;;;;6.07;1.35;;;22.10;70.90;;;;;;5094975;28;20016;-74
2022/09/09 02:49:29;;;;;;;4.78;1.30;;;22.20;70.80;;;;;;5095942;28;20146;-74
2022/09/09 02:52:00;;;;;;;9.80;1.77;;;22.20;70.80;;;;;;5096165;28;20078;-74
2022/09/09 02:54:32;;;;;;;4.93;1.40;;;22.20;70.90;;;;;;5094699;28;20031;-73
2022/09/09 02:57:16;;;;;;;7.35;1.48;;;22.20;70.90;;;;;;5094932;28;20020;-74
2022/09/09 02:59:42;;;;;;;9.77;1.60;;;22.20;70.90;;;;;;5078677;28;20164;-73
2022/09/09 03:02:09;;;;;;;13.38;1.80;;;22.20;71.00;;;;;;5074579;28;20441;-73
2022/09/09 03:04:36;;;;;;;5.13;1.70;;;22.10;70.90;;;;;;5075501;28;20039;-73
2022/09/09 03:07:03;;;;;;;8.50;2.13;;;22.10;70.90;;;;;;5075571;28;20096;-74
2022/09/09 03:09:29;;;;;;;7.65;1.92;;;22.10;70.90;;;;;;5075457;28;20093;-74
2022/09/09 03:11:55;;;;;;;4.70;1.23;;;22.10;70.90;;;;;;5075558;28;20013;-74
2022/09/09 03:14:24;;;;;;;6.15;1.45;;;22.20;71.10;;;;;;5074067;28;20427;-73
2022/09/09 03:16:53;;;;;;;6.10;1.40;;;22.10;70.90;;;;;;5100509;28;20015;-74
2022/09/09 03:19:19;;;;;;;10.93;1.77;;;22.10;70.90;;;;;;5116145;28;20092;-74
2022/09/09 03:21:45;;;;;;;5.55;1.65;;;22.10;71.00;;;;;;5114459;28;20098;-74
2022/09/09 03:24:11;;;;;;;6.65;1.70;;;22.10;71.00;;;;;;5116187;28;20027;-74
2022/09/09 03:26:37;;;;;;;7.63;1.40;;;22.10;71.00;;;;;;5115884;28;20038;-74
2022/09/09 03:29:06;;;;;;;6.90;1.65;;;22.10;71.00;;;;;;5097351;28;20046;-73
2022/09/09 03:31:36;;;;;;;5.82;1.45;;;22.10;71.00;;;;;;5114634;28;20126;-73
2022/09/09 03:34:02;;;;;;;4.43;1.50;;;22.10;71.00;;;;;;5113912;28;20024;-74
2022/09/09 03:36:28;;;;;;;6.63;1.70;;;22.10;71.00;;;;;;5114472;28;20386;-73
2022/09/09 03:38:57;;;;;;;5.60;1.23;;;22.10;71.00;;;;;;5075846;28;20036;-74
2022/09/09 03:41:23;;;;;;;6.45;1.77;;;22.10;71.00;;;;;;5073871;28;20016;-74
2022/09/09 03:43:52;;;;;;;4.90;1.33;;;22.10;71.00;;;;;;5074715;28;20033;-73
2022/09/09 03:46:19;;;;;;;7.80;2.20;;;22.10;71.00;;;;;;5073721;28;20066;-74
2022/09/09 03:48:45;;;;;;;6.28;1.45;;;22.10;71.00;;;;;;5091511;28;20052;-73
2022/09/09 03:51:10;;;;;;;5.80;1.65;;;22.10;71.00;;;;;;5093196;28;20020;-73
2022/09/09 03:53:37;;;;;;;7.40;2.10;;;22.10;71.00;;;;;;5093386;28;20109;-73
2022/09/09 03:56:03;;;;;;;6.28;2.55;;;22.10;71.00;;;;;;5092242;28;20071;-73
2022/09/09 03:58:29;;;;;;;8.75;1.77;;;22.10;71.00;;;;;;5092898;28;20020;-73
2022/09/09 04:00:59;;;;;;;6.55;1.73;;;22.10;71.00;;;;;;5093504;28;20541;-73
2022/09/09 04:03:25;;;;;;;3.75;1.58;;;22.10;71.00;;;;;;5092886;28;20107;-73
2022/09/09 04:05:54;;;;;;;7.55;2.13;;;22.10;71.00;;;;;;5092481;28;20099;-73
2022/09/09 04:08:20;;;;;;;4.07;1.40;;;22.10;71.00;;;;;;5087548;28;20029;-73
2022/09/09 04:10:49;;;;;;;5.65;1.50;;;22.10;71.10;;;;;;5072082;28;20082;-73
2022/09/09 04:13:16;;;;;;;5.82;1.70;;;22.10;71.10;;;;;;5072143;28;20051;-73
2022/09/09 04:15:42;;;;;;;5.20;1.35;;;22.10;71.10;;;;;;5079732;28;20073;-74
2022/09/09 04:18:07;;;;;;;5.90;1.70;;;22.10;71.00;;;;;;5096506;28;20098;-74
2022/09/09 04:20:33;;;;;;;7.00;1.67;;;22.10;71.20;;;;;;5112977;28;20095;-74
2022/09/09 04:22:59;;;;;;;2.83;1.25;;;22.10;71.10;;;;;;5096162;28;20482;-73
2022/09/09 04:25:24;;;;;;;10.40;2.10;;;22.10;71.10;;;;;;5114403;28;20081;-74
2022/09/09 04:27:56;;;;;;;4.13;1.58;;;22.10;71.10;;;;;;5113976;28;20034;-73
2022/09/09 04:30:22;;;;;;;4.72;1.50;;;22.10;71.10;;;;;;5114059;28;20030;-73
2022/09/09 04:32:48;;;;;;;6.00;1.48;;;22.10;71.10;;;;;;5114097;28;20024;-73
2022/09/09 04:35:14;;;;;;;7.93;1.70;;;22.10;71.00;;;;;;5095808;28;20031;-73
2022/09/09 04:37:39;;;;;;;7.20;1.60;;;22.10;71.00;;;;;;5114032;28;20023;-74
2022/09/09 04:40:08;;;;;;;9.55;2.25;;;22.10;71.10;;;;;;5113904;28;20399;-73
2022/09/09 04:42:36;;;;;;;3.92;1.33;;;22.10;71.10;;;;;;5113779;28;20023;-73
2022/09/09 04:45:02;;;;;;;8.00;1.45;;;22.00;71.00;;;;;;5112385;28;20034;-74
2022/09/09 04:47:28;;;;;;;8.82;1.92;;;22.10;71.00;;;;;;5113657;28;20484;-73
2022/09/09 04:49:54;;;;;;;6.78;1.90;;;22.10;71.10;;;;;;5113685;28;20058;-74
2022/09/09 04:52:20;;;;;;;9.18;1.48;;;22.10;71.00;;;;;;5113667;28;20028;-74
2022/09/09 04:54:46;;;;;;;7.03;1.60;;;22.00;71.00;;;;;;5113712;28;20012;-74
2022/09/09 04:57:12;;;;;;;9.98;1.77;;;22.00;71.10;;;;;;5113316;28;20522;-74
2022/09/09 04:59:39;;;;;;;6.05;1.58;;;22.00;71.00;;;;;;5112431;28;20513;-74
2022/09/09 05:02:05;;;;;;;7.25;1.50;;;22.10;71.10;;;;;;5113523;28;20019;-74
2022/09/09 05:04:30;;;;;;;6.05;2.13;;;22.10;71.00;;;;;;5095229;28;20026;-74
2022/09/09 05:06:56;;;;;;;6.50;1.63;;;22.10;71.10;;;;;;5112067;28;20094;-74
2022/09/09 05:09:21;;;;;;;5.13;1.40;;;22.10;71.10;;;;;;5083103;28;20082;-74
2022/09/09 05:11:48;;;;;;;8.38;1.60;;;22.10;71.10;;;;;;5072664;28;20029;-74
2022/09/09 05:14:14;;;;;;;5.35;1.88;;;22.00;71.00;;;;;;5073071;28;20031;-74
2022/09/09 05:16:40;;;;;;;5.10;1.90;;;22.10;71.10;;;;;;5096210;28;20058;-73
2022/09/09 05:19:08;;;;;;;4.75;1.30;;;22.10;71.10;;;;;;5098308;28;20051;-74
2022/09/09 05:21:33;;;;;;;5.00;1.38;;;22.10;71.00;;;;;;5091724;28;20023;-73
2022/09/09 05:24:00;;;;;;;7.00;1.58;;;22.10;71.00;;;;;;5092089;28;20024;-74
2022/09/09 05:26:26;;;;;;;9.30;2.08;;;22.10;71.00;;;;;;5091684;28;20046;-74
2022/09/09 05:28:51;;;;;;;5.88;1.80;;;22.10;71.00;;;;;;5092057;28;20024;-73
2022/09/09 05:31:17;;;;;;;4.82;1.52;;;22.00;70.90;;;;;;5093241;28;20106;-73
2022/09/09 05:33:45;;;;;;;6.35;1.63;;;22.10;71.00;;;;;;5091843;28;20467;-73
2022/09/09 05:36:15;;;;;;;4.90;1.45;;;22.00;70.90;;;;;;5091941;28;20035;-74
2022/09/09 05:38:41;;;;;;;6.68;1.80;;;22.00;71.00;;;;;;5093300;28;20081;-74
2022/09/09 05:41:07;;;;;;;3.35;1.42;;;22.00;71.00;;;;;;5092733;28;20111;-73
2022/09/09 05:43:33;;;;;;;5.40;1.60;;;22.00;71.00;;;;;;5075045;28;20020;-73
2022/09/09 05:46:25;;;;;;;4.72;1.50;;;22.00;71.00;;;;;;5075160;28;20024;-73
2022/09/09 05:48:51;;;;;;;3.83;1.52;;;22.00;71.00;;;;;;5086972;28;20040;-73
2022/09/09 05:51:21;;;;;;;6.07;1.40;;;22.00;71.00;;;;;;5093004;28;20069;-73
2022/09/09 05:53:47;;;;;;;5.25;1.50;;;22.00;71.00;;;;;;5091422;28;20168;-74
2022/09/09 05:56:22;;;;;;;6.65;1.25;;;22.00;71.00;;;;;;5074902;28;20031;-73
2022/09/09 05:58:49;;;;;;;6.03;1.50;;;22.00;71.00;;;;;;5074998;28;20089;-73
2022/09/09 06:01:17;;;;;;;4.25;1.45;;;22.00;71.00;;;;;;5091495;28;20028;-74
2022/09/09 06:03:44;;;;;;;3.83;1.35;;;22.00;71.10;;;;;;5091404;28;20501;-73
2022/09/09 06:06:17;;;;;;;7.25;1.80;;;22.00;71.00;;;;;;5091450;28;20071;-73
2022/09/09 06:08:44;;;;;;;6.20;1.48;;;22.00;71.00;;;;;;5075376;28;20025;-74
2022/09/09 06:11:11;;;;;;;5.78;1.60;;;22.00;71.10;;;;;;5070654;28;20056;-74
2022/09/09 06:13:39;;;;;;;5.43;1.33;;;22.00;70.60;;;;;;5087625;28;20500;-74
2022/09/09 06:16:07;;;;;;;3.78;1.42;;;22.00;70.60;;;;;;5084344;28;20023;-74
2022/09/09 06:18:32;;;;;;;5.18;1.58;;;22.00;70.70;;;;;;5112543;28;20027;-73
2022/09/09 06:21:03;;;;;;;6.03;1.60;;;22.00;70.50;;;;;;5111191;28;20398;-74
2022/09/09 06:23:29;;;;;;;7.07;1.65;;;22.00;70.40;;;;;;5093645;28;20081;-74
2022/09/09 06:26:22;;;;;;;9.02;1.92;;;22.00;70.40;;;;;;5070353;28;20068;-74
2022/09/09 06:28:49;;;;;;;5.32;1.42;;;22.00;70.20;;;;;;5086912;28;20044;-74
2022/09/09 06:31:17;;;;;;;7.10;1.50;;;21.90;70.20;;;;;;5090250;28;20081;-74
2022/09/09 06:33:43;;;;;;;3.42;1.20;;;22.00;70.20;;;;;;5089315;28;20055;-74
2022/09/09 06:36:14;;;;;;;4.07;1.35;;;22.00;70.20;;;;;;5087002;28;20073;-74
2022/09/09 06:38:40;;;;;;;4.35;1.45;;;22.00;70.10;;;;;;5089145;28;20022;-75
2022/09/09 06:41:06;;;;;;;8.93;1.60;;;21.90;70.00;;;;;;5090202;28;20099;-74
2022/09/09 06:43:32;;;;;;;10.27;1.90;;;22.00;70.10;;;;;;5090202;28;20131;-73
2022/09/09 06:46:19;;;;;;;14.60;2.97;;;22.00;70.20;;;;;;5090751;28;20016;-74
2022/09/09 06:48:45;;;;;;;15.43;3.55;;;21.90;70.20;;;;;;5090393;28;20036;-74
2022/09/09 06:51:15;;;;;;;9.52;2.50;;;21.90;70.30;;;;;;5090998;28;20051;-74
2022/09/09 06:53:41;;;;;;;16.90;2.63;;;22.00;70.30;;;;;;5073927;28;20020;-74
2022/09/09 06:56:10;;;;;;;14.15;3.00;;;21.90;70.10;;;;;;5091817;28;20028;-74
2022/09/09 06:58:44;;;;;;;9.77;2.47;;;21.90;70.20;;;;;;5091866;28;20403;-74
2022/09/09 07:01:14;;;;;;;9.35;2.75;;;21.90;70.30;;;;;;5090479;28;20035;-74
2022/09/09 07:03:40;;;;;;;13.95;2.85;;;21.90;70.20;;;;;;5074024;28;20549;-74
2022/09/09 07:06:07;;;;;;;14.50;3.50;;;21.90;70.20;;;;;;5091545;28;20021;-74
2022/09/09 07:08:33;;;;;;;14.45;3.47;;;21.90;70.20;;;;;;5082168;28;20496;-74
2022/09/09 07:11:06;;;;;;;12.65;3.10;;;21.90;70.20;;;;;;5073362;28;20024;-74
2022/09/09 07:13:32;;;;;;;16.30;3.70;;;21.90;70.20;;;;;;5073888;28;20017;-74
2022/09/09 07:16:09;;;;;;;19.65;4.20;;;21.90;70.10;;;;;;5068796;28;20020;-74
2022/09/09 07:18:34;;;;;;;13.38;3.40;;;21.90;70.10;;;;;;5115561;28;20016;-74
2022/09/09 07:21:01;;;;;;;13.65;3.72;;;21.90;70.10;;;;;;5114083;28;20148;-74
2022/09/09 07:23:27;;;;;;;13.13;3.13;;;21.90;70.20;;;;;;5114340;28;20027;-74
2022/09/09 07:25:53;;;;;;;15.55;3.65;;;21.90;70.10;;;;;;5114290;28;20027;-74
2022/09/09 07:28:22;;;;;;;13.93;3.28;;;21.90;70.20;;;;;;5115252;28;20041;-74
2022/09/09 07:30:55;;;;;;;15.40;3.22;;;21.90;70.00;;;;;;5115573;28;20024;-74
2022/09/09 07:33:21;;;;;;;13.75;3.28;;;21.90;70.10;;;;;;5115254;28;20020;-74
2022/09/09 07:35:47;;;;;;;13.93;3.67;;;21.80;70.10;;;;;;5115149;28;20042;-74
2022/09/09 07:38:12;;;;;;;13.18;3.80;;;21.90;70.10;;;;;;5115161;28;20044;-74
2022/09/09 07:40:39;;;;;;;15.32;3.95;;;21.80;70.00;;;;;;5114155;28;20424;-74
2022/09/09 07:43:05;;;;;;;12.57;3.92;;;21.80;70.10;;;;;;5114993;28;20016;-74
2022/09/09 07:45:32;;;;;;;14.48;3.78;;;21.80;70.00;;;;;;5115136;28;20027;-74
2022/09/09 07:47:58;;;;;;;16.50;4.07;;;21.80;70.00;;;;;;5114839;28;20119;-74
2022/09/09 07:50:24;;;;;;;13.35;3.28;;;21.80;70.00;;;;;;5113492;28;20098;-74
2022/09/09 07:52:51;;;;;;;15.02;3.95;;;21.80;70.00;;;;;;5115007;28;20023;-74
2022/09/09 07:55:17;;;;;;;14.70;4.03;;;21.80;70.00;;;;;;5114757;28;20461;-74
2022/09/09 07:57:43;;;;;;;10.35;3.15;;;21.80;70.00;;;;;;5113649;28;20032;-74
2022/09/09 08:00:10;;;;;;;13.65;3.53;;;21.80;70.00;;;;;;5114866;28;20027;-74
2022/09/09 08:02:35;;;;;;;9.93;3.03;;;21.80;70.00;;;;;;5113636;28;20562;-74
2022/09/09 08:05:02;;;;;;;10.32;3.35;;;21.80;70.00;;;;;;5114356;27;20108;-74
2022/09/09 08:07:28;;;;;;;10.68;3.28;;;21.80;70.00;;;;;;5096596;28;20012;-74
2022/09/09 08:09:55;;;;;;;10.98;3.55;;;21.80;70.00;;;;;;5075344;28;20499;-75
2022/09/09 08:12:21;;;;;;;11.82;3.85;;;21.80;70.00;;;;;;5073826;28;20025;-74
2022/09/09 08:14:48;;;;;;;13.07;3.58;;;21.80;70.00;;;;;;5073978;28;20103;-74
2022/09/09 08:17:14;;;;;;;12.65;3.65;;;21.80;70.00;;;;;;5106514;28;20023;-74
2022/09/09 08:19:39;;;;;;;13.43;3.58;;;21.80;70.00;;;;;;5113123;28;20039;-74
2022/09/09 08:22:05;;;;;;;10.43;3.30;;;21.80;70.00;;;;;;5114167;28;20047;-74
2022/09/09 08:24:30;;;;;;;12.05;3.53;;;21.80;70.00;;;;;;5114453;28;20035;-74
2022/09/09 08:26:56;;;;;;;10.25;3.75;;;21.80;70.00;;;;;;5114398;28;20026;-74
2022/09/09 08:29:22;;;;;;;12.90;3.50;;;21.70;69.90;;;;;;5114045;28;20063;-74
2022/09/09 08:31:54;;;;;;;10.85;3.22;;;21.70;69.90;;;;;;5114125;28;20040;-74
2022/09/09 08:34:20;;;;;;;10.57;3.00;;;21.70;69.90;;;;;;5112736;28;20215;-74
2022/09/09 08:36:46;;;;;;;10.77;3.05;;;21.70;69.90;;;;;;5113031;28;20038;-74
2022/09/09 08:39:13;;;;;;;11.43;3.25;;;21.70;69.90;;;;;;5113782;28;20019;-74
2022/09/09 08:42:04;;;;;;;11.35;3.17;;;21.70;70.90;;;;;;5112787;28;20023;-74
2022/09/09 08:44:49;;;;;;;12.20;3.30;;;21.70;69.90;;;;;;5112696;28;20107;-74
2022/09/09 08:47:42;;;;;;;10.90;3.28;;;21.70;69.90;;;;;;5113733;28;20035;-74
2022/09/09 08:50:14;;;;;;;12.35;3.75;;;21.70;69.90;;;;;;5113815;28;20035;-74
2022/09/09 08:53:08;;;;;;;11.50;3.13;;;21.70;69.90;;;;;;5112721;28;20300;-74
2022/09/09 08:55:48;;;;;;;9.77;3.38;;;21.70;69.90;;;;;;5112607;28;20249;-74
2022/09/09 08:58:15;;;;;;;11.57;3.17;;;21.70;69.90;;;;;;5112353;28;20023;-74
2022/09/09 09:00:52;;;;;;;9.68;2.83;;;21.70;69.90;;;;;;5113736;28;20095;-75
2022/09/09 09:03:41;;;;;;;10.70;3.00;;;21.70;69.90;;;;;;5096551;28;20491;-74
2022/09/09 09:06:09;;;;;;;9.57;2.75;;;21.70;69.90;;;;;;5113372;28;20441;-74
2022/09/09 09:08:46;;;;;;;9.10;2.97;;;21.70;69.90;;;;;;5096057;28;20400;-74
2022/09/09 09:11:12;;;;;;;8.57;2.92;;;21.70;69.90;;;;;;5071529;28;20076;-73
2022/09/09 09:13:52;;;;;;;10.90;3.25;;;21.70;69.90;;;;;;5072740;28;20052;-74
2022/09/09 09:16:32;;;;;;;9.70;3.50;;;21.70;69.90;;;;;;5088654;28;20500;-74
2022/09/09 09:18:58;;;;;;;8.32;2.78;;;21.70;69.90;;;;;;5096818;28;20087;-74
2022/09/09 09:21:43;;;;;;;10.18;2.63;;;21.60;69.80;;;;;;5113305;28;20095;-74
2022/09/09 09:24:23;;;;;;;6.57;2.42;;;21.70;69.90;;;;;;5112093;28;20031;-74
2022/09/09 09:26:49;;;;;;;12.10;3.65;;;21.60;69.80;;;;;;5111944;28;20027;-74
2022/09/09 09:29:19;;;;;;;8.98;2.83;;;21.60;69.90;;;;;;5113027;28;20020;-74
2022/09/09 09:31:56;;;;;;;8.25;3.05;;;21.70;69.90;;;;;;5094579;28;20019;-74
2022/09/09 09:34:23;;;;;;;10.48;2.75;;;21.60;69.90;;;;;;5094852;28;20413;-74
2022/09/09 09:37:01;;;;;;;7.95;2.63;;;21.60;69.80;;;;;;5111921;28;20648;-74
2022/09/09 09:39:42;;;;;;;10.88;2.90;;;21.60;69.80;;;;;;5112806;28;20122;-74
2022/09/09 09:42:11;;;;;;;8.30;2.92;;;21.60;69.80;;;;;;5096148;28;20509;-74
2022/09/09 09:44:37;;;;;;;10.18;3.13;;;21.60;69.80;;;;;;5111815;28;20076;-74
2022/09/09 09:47:13;;;;;;;8.07;2.58;;;21.60;70.80;;;;;;5112790;28;20094;-74
2022/09/09 09:49:39;;;;;;;7.53;2.38;;;21.60;69.80;;;;;;5095112;28;20071;-74
2022/09/09 09:52:06;;;;;;;7.72;2.80;;;21.60;69.80;;;;;;5111709;28;20016;-74
2022/09/09 09:54:38;;;;;;;7.22;2.72;;;21.60;69.80;;;;;;5112705;28;20039;-75
2022/09/09 09:57:16;;;;;;;8.68;2.60;;;21.60;69.80;;;;;;5094801;28;20506;-74
2022/09/09 09:59:42;;;;;;;10.32;3.20;;;21.60;69.80;;;;;;5095043;28;20495;-74
2022/09/09 10:02:26;;;;;;;7.55;2.88;;;21.60;69.80;;;;;;5094490;28;20049;-74
2022/09/09 10:05:24;;;;;;;6.75;2.50;;;21.60;69.80;;;;;;5111469;28;20031;-74
2022/09/09 10:08:04;;;;;;;7.18;2.45;;;21.60;69.70;;;;;;5092312;28;20400;-75
2022/09/09 10:10:49;;;;;;;8.30;3.15;;;21.60;69.80;;;;;;5070978;28;20024;-74
2022/09/09 10:13:29;;;;;;;9.05;2.72;;;21.60;69.70;;;;;;5071022;28;20020;-74
2022/09/09 10:16:26;;;;;;;8.43;2.35;;;21.60;69.80;;;;;;5082585;28;20048;-74
2022/09/09 10:19:03;;;;;;;7.03;2.35;;;21.60;69.70;;;;;;5111459;28;20023;-74
2022/09/09 10:21:31;;;;;;;7.70;2.63;;;21.60;69.70;;;;;;5095015;28;20100;-74
2022/09/09 10:24:05;;;;;;;8.75;2.50;;;21.60;69.80;;;;;;5112586;28;20027;-74
2022/09/09 10:26:40;;;;;;;8.63;3.05;;;21.60;69.70;;;;;;5112438;28;20570;-74
2022/09/09 10:29:43;;;;;;;6.90;2.58;;;21.60;69.70;;;;;;5110922;28;20043;-74
2022/09/09 10:32:29;;;;;;;;;;;21.60;69.70;;;;;;5103178;28;20116;-74
2022/09/09 10:35:27;;;;;;;5.97;2.10;;;21.60;69.50;;;;;;5111434;28;20423;-74
2022/09/09 10:38:04;;;;;;;6.90;2.33;;;21.60;69.60;;;;;;5111027;28;20093;-74
2022/09/09 10:40:59;;;;;;;9.65;2.63;;;21.60;69.70;;;;;;5112278;28;20024;-74
2022/09/09 10:43:45;;;;;;;6.95;2.60;;;21.60;69.80;;;;;;5111850;28;20023;-74
2022/09/09 10:46:35;;;;;;;9.43;2.80;;;21.60;69.70;;;;;;5116273;28;20433;-74
2022/09/09 10:49:43;;;;;;;4.72;2.08;;;21.60;69.70;;;;;;5116032;28;20495;-74
2022/09/09 10:52:32;;;;;;;5.85;2.17;;;21.60;69.70;;;;;;5016997;28;20120;-74
2022/09/09 10:55:16;;;;;;;6.32;2.38;;;21.60;69.70;;;;;;5016951;28;20037;-74
2022/09/09 10:57:49;;;;;;;8.15;2.30;;;21.60;69.60;;;;;;5016815;28;20116;-74
2022/09/09 11:00:22;;;;;;;6.47;2.33;;;21.60;69.60;;;;;;5033024;28;20035;-74
2022/09/09 11:02:59;;;;;;;8.57;2.33;;;21.50;69.60;;;;;;5016852;28;20493;-74
2022/09/09 11:05:46;;;;;;;6.97;2.35;;;21.50;69.70;;;;;;5017764;28;20146;-74
2022/09/09 11:08:15;;;;;;;7.88;2.03;;;21.50;69.60;;;;;;5022531;28;20046;-74
2022/09/09 11:10:55;;;;;;;8.80;2.28;;;21.50;69.60;;;;;;4993650;28;20058;-74
2022/09/09 11:13:37;;;;;;;5.90;1.98;;;21.50;69.50;;;;;;4993637;28;20037;-74
2022/09/09 11:16:05;;;;;;;;;;;21.50;69.50;;;;;;5006740;28;20033;-74
2022/09/09 11:18:31;;;;;;;6.65;2.03;;;21.50;69.40;;;;;;5016526;28;19911;-74
2022/09/09 11:21:00;;;;;;;4.68;1.83;;;21.50;69.50;;;;;;5016614;28;20507;-74
2022/09/09 11:23:33;;;;;;;5.18;1.52;;;21.50;69.50;;;;;;5016551;28;20168;-74
2022/09/09 11:26:03;;;;;;;5.47;2.05;;;21.50;69.50;;;;;;5017156;28;20030;-74
2022/09/09 11:28:57;;;;;;;7.75;2.10;;;21.50;69.40;;;;;;5055143;28;20058;-74
2022/09/09 11:31:55;;;;;;;4.45;2.13;;;21.60;69.50;;;;;;5114426;28;20023;-74
2022/09/09 11:34:45;;;;;;;5.75;2.20;;;21.50;69.40;;;;;;5099335;28;20039;-74
2022/09/09 11:37:22;;;;;;;5.65;1.92;;;21.50;69.40;;;;;;5115246;28;20063;-74
2022/09/09 11:39:50;;;;;;;6.10;1.85;;;21.50;69.50;;;;;;5115097;28;20028;-74
2022/09/09 11:42:21;;;;;;;5.45;1.80;;;21.50;69.50;;;;;;5115051;28;20030;-74
2022/09/09 11:44:46;;;;;;;5.50;1.83;;;21.50;69.40;;;;;;5113860;28;20114;-74
2022/09/09 11:47:26;;;;;;;7.32;2.10;;;21.50;69.50;;;;;;5113957;28;20106;-74
2022/09/09 11:49:53;;;;;;;6.15;2.20;;;21.50;69.30;;;;;;5113592;28;20096;-74
2022/09/09 11:52:23;;;;;;;6.55;1.90;;;21.50;69.40;;;;;;5114885;28;20024;-74
2022/09/09 11:54:50;;;;;;;6.32;2.22;;;21.50;69.50;;;;;;5114664;28;20032;-74
2022/09/09 11:57:46;;;;;;;4.70;1.83;;;21.50;69.50;;;;;;5114511;28;20042;-74
2022/09/09 12:00:34;;;;;;;7.35;2.13;;;21.50;69.40;;;;;;5098212;28;20031;-74
2022/09/09 12:03:00;;;;;;;5.95;2.03;;;21.50;69.40;;;;;;5113655;28;20024;-74
2022/09/09 12:05:39;;;;;;;5.55;1.70;;;21.50;69.40;;;;;;5113375;28;20027;-74
2022/09/09 12:08:05;;;;;;;6.57;2.17;;;21.50;69.40;;;;;;5088312;28;20063;-74
2022/09/09 12:10:35;;;;;;;6.03;1.85;;;21.50;69.50;;;;;;5072584;28;20052;-74
2022/09/09 12:13:27;;;;;;;5.43;1.90;;;21.50;69.40;;;;;;5072898;28;20047;-74
2022/09/09 12:15:54;;;;;;;4.73;1.70;;;21.50;69.40;;;;;;5082781;28;20032;-73
2022/09/09 12:18:25;;;;;;;4.78;1.75;;;21.50;69.40;;;;;;5114499;28;20024;-74
2022/09/09 12:21:24;;;;;;;4.28;1.80;;;21.50;69.40;;;;;;5113493;28;20019;-74
2022/09/09 12:23:56;;;;;;;8.65;2.05;;;21.50;69.30;;;;;;5113272;28;20433;-74
2022/09/09 12:26:27;;;;;;;5.07;1.88;;;21.50;69.40;;;;;;5096005;28;20039;-74
2022/09/09 12:28:59;;;;;;;7.85;1.77;;;21.50;69.40;;;;;;5114282;28;20100;-74
2022/09/09 12:31:32;;;;;;;4.88;1.90;;;21.50;69.40;;;;;;5096638;28;20020;-74
2022/09/09 12:34:09;;;;;;;4.38;1.83;;;21.50;69.40;;;;;;5113142;28;20031;-74
2022/09/09 12:36:35;;;;;;;5.78;2.10;;;21.50;69.40;;;;;;5096691;28;20015;-74
2022/09/09 12:39:14;;;;;;;7.65;1.92;;;21.50;69.40;;;;;;5113998;28;20106;-74
2022/09/09 12:41:40;;;;;;;4.22;1.40;;;21.50;69.50;;;;;;5112361;28;20073;-74
2022/09/09 12:44:09;;;;;;;7.85;2.28;;;21.50;69.50;;;;;;5114083;28;20032;-74
2022/09/09 12:46:40;;;;;;;5.82;1.90;;;21.50;69.50;;;;;;5112711;28;20039;-75
2022/09/09 12:49:18;;;;;;;6.47;2.00;;;21.50;69.50;;;;;;5112463;28;20046;-74
2022/09/09 12:51:43;;;;;;;5.93;1.77;;;21.50;69.50;;;;;;5112629;28;20375;-74
2022/09/09 12:54:12;;;;;;;4.13;1.70;;;21.50;69.50;;;;;;5113676;28;20020;-74
2022/09/09 12:56:39;;;;;;;3.92;1.67;;;21.50;69.50;;;;;;5095607;28;20422;-74
2022/09/09 12:59:04;;;;;;;5.60;1.80;;;21.50;69.50;;;;;;5095719;28;20031;-74
2022/09/09 13:01:32;;;;;;;4.88;1.73;;;21.50;70.50;;;;;;5113662;28;20019;-74
2022/09/09 13:03:58;;;;;;;4.32;1.58;;;21.50;69.50;;;;;;5095706;28;20028;-74
2022/09/09 13:06:28;;;;;;;4.78;1.85;;;21.50;69.50;;;;;;5113612;28;20024;-74
2022/09/09 13:08:55;;;;;;;5.63;1.83;;;21.50;69.50;;;;;;5089064;28;20035;-74
2022/09/09 13:11:24;;;;;;;5.38;1.95;;;21.50;69.50;;;;;;5073005;28;20484;-74